sensor_id;sensor_type;location;lat;lon;timestamp;pressure;altitude;pressure_sealevel;temperature;humidity
71457;BME280;59263;48.160;11.752;2023-02-11T00:01:45;97772.56;;;-3.41;100.00
71457;BME280;59263;48.160;11.752;2023-02-11T00:04:10;97802.78;;;-3.23;100.00
71457;BME280;59263;48.160;11.752;2023-02-11T00:06:35;97806.19;;;-3.25;100.00
71457;BME280;59263;48.160;11.752;2023-02-11T00:09:01;97801.13;;;-3.27;100.00
71457;BME280;59263;48.160;11.752;2023-02-11T00:11:27;97784.34;;;-3.37;100.00
71457;BME280;59263;48.160;11.752;2023-02-11T00:13:57;97800.31;;;-3.29;100.00
71457;BME280;59263;48.160;11.752;2023-02-11T00:16:23;97768.38;;;-3.48;100.00
71457;BME280;59263;48.160;11.752;2023-02-11T00:18:49;97802.84;;;-3.29;100.00
71457;BME280;59263;48.160;11.752;2023-02-11T00:21:21;97772.56;;;-3.46;100.00
71457;BME280;59263;48.160;11.752;2023-02-11T00:23:48;97807.94;;;-3.33;100.00
71457;BME280;59263;48.160;11.752;2023-02-11T00:26:15;97808.78;;;-3.36;100.00
71457;BME280;59263;48.160;11.752;2023-02-11T00:28:41;97802.88;;;-3.38;100.00
71457;BME280;59263;48.160;11.752;2023-02-11T00:31:07;97803.72;;;-3.39;100.00
71457;BME280;59263;48.160;11.752;2023-02-11T00:33:33;97791.19;;;-3.57;100.00
71457;BME280;59263;48.160;11.752;2023-02-11T00:36:03;97802.94;;;-3.47;100.00
71457;BME280;59263;48.160;11.752;2023-02-11T00:38:28;97795.38;;;-3.50;100.00
71457;BME280;59263;48.160;11.752;2023-02-11T00:40:54;97788.66;;;-3.56;100.00
71457;BME280;59263;48.160;11.752;2023-02-11T00:43:19;97790.31;;;-3.53;100.00
71457;BME280;59263;48.160;11.752;2023-02-11T00:45:44;97780.19;;;-3.53;100.00
71457;BME280;59263;48.160;11.752;2023-02-11T00:48:10;97792.78;;;-3.43;100.00
71457;BME280;59263;48.160;11.752;2023-02-11T00:50:35;97786.06;;;-3.44;100.00
71457;BME280;59263;48.160;11.752;2023-02-11T00:53:00;97775.09;;;-3.44;100.00
71457;BME280;59263;48.160;11.752;2023-02-11T00:55:25;97765.84;;;-3.53;100.00
71457;BME280;59263;48.160;11.752;2023-02-11T00:57:51;97777.69;;;-3.55;100.00
71457;BME280;59263;48.160;11.752;2023-02-11T01:00:16;97768.44;;;-3.63;100.00
71457;BME280;59263;48.160;11.752;2023-02-11T01:02:42;97785.34;;;-3.69;100.00
71457;BME280;59263;48.160;11.752;2023-02-11T01:05:07;97773.56;;;-3.76;100.00
71457;BME280;59263;48.160;11.752;2023-02-11T01:07:32;97773.63;;;-3.85;100.00
71457;BME280;59263;48.160;11.752;2023-02-11T01:09:58;97783.75;;;-3.82;100.00
71457;BME280;59263;48.160;11.752;2023-02-11T01:12:24;97745.91;;;-4.06;100.00
71457;BME280;59263;48.160;11.752;2023-02-11T01:14:49;97765.19;;;-3.84;100.00
71457;BME280;59263;48.160;11.752;2023-02-11T01:17:15;97776.97;;;-3.77;100.00
71457;BME280;59263;48.160;11.752;2023-02-11T01:19:40;97773.53;;;-3.71;100.00
71457;BME280;59263;48.160;11.752;2023-02-11T01:22:06;97760.94;;;-3.74;100.00
71457;BME280;59263;48.160;11.752;2023-02-11T01:24:32;97768.50;;;-3.73;100.00
71457;BME280;59263;48.160;11.752;2023-02-11T01:26:57;97750.91;;;-3.94;100.00
71457;BME280;59263;48.160;11.752;2023-02-11T01:29:22;97761.81;;;-3.83;100.00
71457;BME280;59263;48.160;11.752;2023-02-11T01:31:48;97770.19;;;-3.72;100.00
71457;BME280;59263;48.160;11.752;2023-02-11T01:34:14;97766.78;;;-3.68;100.00
71457;BME280;59263;48.160;11.752;2023-02-11T01:36:39;97768.47;;;-3.68;100.00
71457;BME280;59263;48.160;11.752;2023-02-11T01:39:04;97773.56;;;-3.70;100.00
71457;BME280;59263;48.160;11.752;2023-02-11T01:41:30;97769.34;;;-3.75;100.00
71457;BME280;59263;48.160;11.752;2023-02-11T01:43:55;97766.00;;;-3.80;100.00
71457;BME280;59263;48.160;11.752;2023-02-11T01:46:35;97775.28;;;-3.78;100.00
71457;BME280;59263;48.160;11.752;2023-02-11T01:49:10;97779.50;;;-3.81;100.00
71457;BME280;59263;48.160;11.752;2023-02-11T01:51:40;97728.22;;;-4.03;100.00
71457;BME280;59263;48.160;11.752;2023-02-11T01:54:09;97770.25;;;-3.81;100.00
71457;BME280;59263;48.160;11.752;2023-02-11T01:56:56;97734.94;;;-3.99;100.00
71457;BME280;59263;48.160;11.752;2023-02-11T02:00:17;97782.09;;;-3.89;100.00
71457;BME280;59263;48.160;11.752;2023-02-11T02:05:36;97765.25;;;-3.99;100.00
71457;BME280;59263;48.160;11.752;2023-02-11T02:11:02;97736.75;;;-4.33;100.00
71457;BME280;59263;48.160;11.752;2023-02-11T02:13:32;97770.34;;;-4.08;100.00
71457;BME280;59263;48.160;11.752;2023-02-11T02:15:59;97726.63;;;-4.29;100.00
71457;BME280;59263;48.160;11.752;2023-02-11T02:29:35;97707.34;;;-4.48;100.00
71457;BME280;59263;48.160;11.752;2023-02-11T02:37:36;97731.63;;;-4.23;100.00
71457;BME280;59263;48.160;11.752;2023-02-11T02:40:14;97713.13;;;-4.25;100.00
71457;BME280;59263;48.160;11.752;2023-02-11T02:42:42;97676.97;;;-4.39;100.00
71457;BME280;59263;48.160;11.752;2023-02-11T02:45:19;97718.91;;;-4.04;100.00
71457;BME280;59263;48.160;11.752;2023-02-11T02:47:44;97682.78;;;-4.22;100.00
71457;BME280;59263;48.160;11.752;2023-02-11T02:50:10;97684.47;;;-4.21;100.00
71457;BME280;59263;48.160;11.752;2023-02-11T02:53:02;97717.16;;;-3.90;100.00
71457;BME280;59263;48.160;11.752;2023-02-11T02:55:35;97712.94;;;-3.85;100.00
71457;BME280;59263;48.160;11.752;2023-02-11T03:01:00;97670.16;;;-4.19;100.00
71457;BME280;59263;48.160;11.752;2023-02-11T03:03:42;97695.25;;;-3.88;100.00
71457;BME280;59263;48.160;11.752;2023-02-11T03:06:19;97674.28;;;-4.02;100.00
71457;BME280;59263;48.160;11.752;2023-02-11T03:09:08;97702.88;;;-3.97;100.00
71457;BME280;59263;48.160;11.752;2023-02-11T03:11:37;97654.19;;;-4.31;100.00
71457;BME280;59263;48.160;11.752;2023-02-11T03:14:05;97667.66;;;-4.25;100.00
71457;BME280;59263;48.160;11.752;2023-02-11T03:16:32;97632.28;;;-4.28;100.00
71457;BME280;59263;48.160;11.752;2023-02-11T03:19:11;97675.94;;;-4.04;100.00
71457;BME280;59263;48.160;11.752;2023-02-11T03:21:38;97658.19;;;-3.94;100.00
71457;BME280;59263;48.160;11.752;2023-02-11T03:24:10;97653.97;;;-3.90;100.00
71457;BME280;59263;48.160;11.752;2023-02-11T03:26:40;97661.56;;;-3.88;100.00
71457;BME280;59263;48.160;11.752;2023-02-11T03:29:21;97614.50;;;-4.09;100.00
71457;BME280;59263;48.160;11.752;2023-02-11T03:31:57;97660.59;;;-3.71;100.00
71457;BME280;59263;48.160;11.752;2023-02-11T03:37:17;97658.84;;;-3.62;100.00
71457;BME280;59263;48.160;11.752;2023-02-11T03:39:51;97644.59;;;-3.74;100.00
71457;BME280;59263;48.160;11.752;2023-02-11T03:42:18;97624.53;;;-3.99;100.00
71457;BME280;59263;48.160;11.752;2023-02-11T03:44:51;97636.31;;;-3.98;100.00
71457;BME280;59263;48.160;11.752;2023-02-11T03:47:20;97661.50;;;-3.81;100.00
71457;BME280;59263;48.160;11.752;2023-02-11T03:49:48;97643.72;;;-3.69;100.00
71457;BME280;59263;48.160;11.752;2023-02-11T03:52:18;97642.06;;;-3.76;100.00
71457;BME280;59263;48.160;11.752;2023-02-11T03:54:50;97674.03;;;-3.67;100.00
71457;BME280;59263;48.160;11.752;2023-02-11T03:57:20;97622.81;;;-3.94;100.00
71457;BME280;59263;48.160;11.752;2023-02-11T03:59:49;97674.91;;;-3.67;100.00
71457;BME280;59263;48.160;11.752;2023-02-11T04:02:15;97632.94;;;-3.95;100.00
71457;BME280;59263;48.160;11.752;2023-02-11T04:04:40;97655.63;;;-3.86;100.00
71457;BME280;59263;48.160;11.752;2023-02-11T04:07:06;97620.31;;;-3.98;100.00
71457;BME280;59263;48.160;11.752;2023-02-11T04:09:31;97647.13;;;-3.76;100.00
71457;BME280;59263;48.160;11.752;2023-02-11T04:11:57;97656.44;;;-3.78;100.00
71457;BME280;59263;48.160;11.752;2023-02-11T04:14:22;97642.16;;;-3.88;100.00
71457;BME280;59263;48.160;11.752;2023-02-11T04:16:50;97669.00;;;-3.72;100.00
71457;BME280;59263;48.160;11.752;2023-02-11T04:19:15;97624.59;;;-4.13;100.00
71457;BME280;59263;48.160;11.752;2023-02-11T04:21:41;97660.81;;;-4.07;100.00
71457;BME280;59263;48.160;11.752;2023-02-11T04:24:06;97682.78;;;-4.19;100.00
71457;BME280;59263;48.160;11.752;2023-02-11T04:26:32;97667.66;;;-4.31;100.00
71457;BME280;59263;48.160;11.752;2023-02-11T04:28:57;97657.63;;;-4.46;100.00
71457;BME280;59263;48.160;11.752;2023-02-11T04:31:22;97663.44;;;-4.27;100.00
71457;BME280;59263;48.160;11.752;2023-02-11T04:33:48;97661.75;;;-4.22;100.00
71457;BME280;59263;48.160;11.752;2023-02-11T04:36:13;97678.53;;;-4.07;100.00
71457;BME280;59263;48.160;11.752;2023-02-11T04:38:38;97679.34;;;-4.05;100.00
71457;BME280;59263;48.160;11.752;2023-02-11T04:41:04;97654.13;;;-4.16;100.00
71457;BME280;59263;48.160;11.752;2023-02-11T04:43:32;97702.09;;;-4.05;100.00
71457;BME280;59263;48.160;11.752;2023-02-11T04:46:00;97683.66;;;-4.29;100.00
71457;BME280;59263;48.160;11.752;2023-02-11T04:48:26;97654.28;;;-4.53;100.00
71457;BME280;59263;48.160;11.752;2023-02-11T04:50:51;97685.41;;;-4.49;100.00
71457;BME280;59263;48.160;11.752;2023-02-11T04:53:16;97699.72;;;-4.45;100.00
71457;BME280;59263;48.160;11.752;2023-02-11T04:55:42;97741.78;;;-4.32;100.00
71457;BME280;59263;48.160;11.752;2023-02-11T04:58:07;97735.88;;;-4.34;100.00
71457;BME280;59263;48.160;11.752;2023-02-11T05:00:38;97726.63;;;-4.35;100.00
71457;BME280;59263;48.160;11.752;2023-02-11T05:03:04;97718.19;;;-4.34;100.00
71457;BME280;59263;48.160;11.752;2023-02-11T05:05:29;97720.75;;;-4.29;100.00
71457;BME280;59263;48.160;11.752;2023-02-11T05:07:54;97723.22;;;-4.23;100.00
71457;BME280;59263;48.160;11.752;2023-02-11T05:10:20;97688.75;;;-4.40;100.00
71457;BME280;59263;48.160;11.752;2023-02-11T05:12:47;97684.56;;;-4.42;100.00
71457;BME280;59263;48.160;11.752;2023-02-11T05:15:12;97687.88;;;-4.34;100.00
71457;BME280;59263;48.160;11.752;2023-02-11T05:17:38;97708.88;;;-4.15;100.00
71457;BME280;59263;48.160;11.752;2023-02-11T05:20:03;97685.31;;;-4.20;100.00
71457;BME280;59263;48.160;11.752;2023-02-11T05:22:32;97692.03;;;-4.11;100.00
71457;BME280;59263;48.160;11.752;2023-02-11T05:24:57;97679.28;;;-3.98;100.00
71457;BME280;59263;48.160;11.752;2023-02-11T05:27:22;97673.34;;;-3.91;100.00
71457;BME280;59263;48.160;11.752;2023-02-11T05:29:47;97699.28;;;-3.61;100.00
71457;BME280;59263;48.160;11.752;2023-02-11T05:32:13;97668.13;;;-3.65;100.00
71457;BME280;59263;48.160;11.752;2023-02-11T05:34:38;97635.31;;;-3.71;100.00
71457;BME280;59263;48.160;11.752;2023-02-11T05:37:06;97670.50;;;-3.43;100.00
71457;BME280;59263;48.160;11.752;2023-02-11T05:39:32;97641.91;;;-3.54;100.00
71457;BME280;59263;48.160;11.752;2023-02-11T05:41:57;97654.47;;;-3.42;100.00
71457;BME280;59263;48.160;11.752;2023-02-11T05:44:22;97685.50;;;-3.19;100.00
71457;BME280;59263;48.160;11.752;2023-02-11T05:46:48;97662.81;;;-3.34;100.00
71457;BME280;59263;48.160;11.752;2023-02-11T05:49:14;97661.97;;;-3.30;100.00
71457;BME280;59263;48.160;11.752;2023-02-11T05:51:40;97652.75;;;-3.37;100.00
71457;BME280;59263;48.160;11.752;2023-02-11T05:54:05;97677.97;;;-3.28;100.00
71457;BME280;59263;48.160;11.752;2023-02-11T05:56:30;97651.06;;;-3.36;100.00
71457;BME280;59263;48.160;11.752;2023-02-11T05:58:57;97640.03;;;-3.34;100.00
71457;BME280;59263;48.160;11.752;2023-02-11T06:01:32;97633.28;;;-3.32;100.00
71457;BME280;59263;48.160;11.752;2023-02-11T06:04:01;97621.41;;;-3.27;100.00
71457;BME280;59263;48.160;11.752;2023-02-11T06:06:26;97660.88;;;-3.04;100.00
71457;BME280;59263;48.160;11.752;2023-02-11T06:08:52;97633.13;;;-3.13;100.00
71457;BME280;59263;48.160;11.752;2023-02-11T06:11:17;97668.34;;;-2.89;100.00
71457;BME280;59263;48.160;11.752;2023-02-11T06:13:54;97668.34;;;-2.89;100.00
71457;BME280;59263;48.160;11.752;2023-02-11T06:16:20;97648.19;;;-3.01;100.00
71457;BME280;59263;48.160;11.752;2023-02-11T06:18:45;97626.38;;;-3.14;100.00
71457;BME280;59263;48.160;11.752;2023-02-11T06:21:11;97610.38;;;-3.17;100.00
71457;BME280;59263;48.160;11.752;2023-02-11T06:23:37;97645.56;;;-2.94;100.00
71457;BME280;59263;48.160;11.752;2023-02-11T06:26:04;97664.03;;;-2.82;100.00
71457;BME280;59263;48.160;11.752;2023-02-11T06:28:34;97608.69;;;-3.18;100.00
71457;BME280;59263;48.160;11.752;2023-02-11T06:31:06;97636.38;;;-2.99;100.00
71457;BME280;59263;48.160;11.752;2023-02-11T06:33:39;97623.00;;;-3.13;100.00
71457;BME280;59263;48.160;11.752;2023-02-11T06:36:12;97672.50;;;-2.83;100.00
71457;BME280;59263;48.160;11.752;2023-02-11T06:38:38;97641.44;;;-2.99;100.00
71457;BME280;59263;48.160;11.752;2023-02-11T06:41:03;97640.59;;;-3.01;100.00
71457;BME280;59263;48.160;11.752;2023-02-11T06:43:31;97674.97;;;-2.79;100.00
71457;BME280;59263;48.160;11.752;2023-02-11T06:45:56;97613.66;;;-3.08;100.00
71457;BME280;59263;48.160;11.752;2023-02-11T06:48:22;97607.72;;;-3.06;100.00
71457;BME280;59263;48.160;11.752;2023-02-11T06:50:50;97622.84;;;-2.98;100.00
71457;BME280;59263;48.160;11.752;2023-02-11T06:53:18;97641.22;;;-2.78;100.00
71457;BME280;59263;48.160;11.752;2023-02-11T06:55:43;97674.81;;;-2.63;100.00
71457;BME280;59263;48.160;11.752;2023-02-11T06:58:09;97683.22;;;-2.58;100.00
71457;BME280;59263;48.160;11.752;2023-02-11T07:00:35;97673.88;;;-2.56;100.00
71457;BME280;59263;48.160;11.752;2023-02-11T07:03:00;97671.41;;;-2.59;100.00
71457;BME280;59263;48.160;11.752;2023-02-11T07:05:26;97663.00;;;-2.64;100.00
71457;BME280;59263;48.160;11.752;2023-02-11T07:07:51;97657.88;;;-2.60;100.00
71457;BME280;59263;48.160;11.752;2023-02-11T07:10:20;97653.66;;;-2.59;100.00
71457;BME280;59263;48.160;11.752;2023-02-11T07:12:48;97693.81;;;-2.27;100.00
71457;BME280;59263;48.160;11.752;2023-02-11T07:15:14;97640.00;;;-2.49;100.00
71457;BME280;59263;48.160;11.752;2023-02-11T07:17:40;97608.06;;;-2.59;100.00
71457;BME280;59263;48.160;11.752;2023-02-11T07:20:08;97649.13;;;-2.33;100.00
71457;BME280;59263;48.160;11.752;2023-02-11T07:22:39;97640.66;;;-2.32;100.00
71457;BME280;59263;48.160;11.752;2023-02-11T07:25:05;97663.94;;;-2.02;100.00
71457;BME280;59263;48.160;11.752;2023-02-11T07:27:30;97624.38;;;-2.14;100.00
71457;BME280;59263;48.160;11.752;2023-02-11T07:29:56;97617.56;;;-2.10;100.00
71457;BME280;59263;48.160;11.752;2023-02-11T07:32:34;97656.00;;;-1.79;100.00
71457;BME280;59263;48.160;11.752;2023-02-11T07:35:02;97636.69;;;-1.88;100.00
71457;BME280;59263;48.160;11.752;2023-02-11T07:37:32;97648.38;;;-1.78;100.00
71457;BME280;59263;48.160;11.752;2023-02-11T07:40:01;97632.50;;;-1.92;100.00
71457;BME280;59263;48.160;11.752;2023-02-11T07:42:34;97663.50;;;-1.72;100.00
71457;BME280;59263;48.160;11.752;2023-02-11T07:45:00;97640.81;;;-1.82;100.00
71457;BME280;59263;48.160;11.752;2023-02-11T07:47:29;97660.88;;;-1.67;100.00
71457;BME280;59263;48.160;11.752;2023-02-11T07:49:59;97687.56;;;-1.40;100.00
71457;BME280;59263;48.160;11.752;2023-02-11T07:52:24;97619.56;;;-1.74;100.00
71457;BME280;59263;48.160;11.752;2023-02-11T07:54:49;97669.78;;;-1.40;100.00
71457;BME280;59263;48.160;11.752;2023-02-11T07:57:15;97670.50;;;-1.32;100.00
71457;BME280;59263;48.160;11.752;2023-02-11T07:59:40;97625.00;;;-1.44;100.00
71457;BME280;59263;48.160;11.752;2023-02-11T08:02:05;97612.19;;;-1.38;100.00
71457;BME280;59263;48.160;11.752;2023-02-11T08:04:31;97627.16;;;-1.23;100.00
71457;BME280;59263;48.160;11.752;2023-02-11T08:06:58;97613.63;;;-1.23;100.00
71457;BME280;59263;48.160;11.752;2023-02-11T08:09:26;97626.84;;;-1.04;100.00
71457;BME280;59263;48.160;11.752;2023-02-11T08:11:51;97628.25;;;-0.88;100.00
71457;BME280;59263;48.160;11.752;2023-02-11T08:14:17;97641.72;;;-0.83;100.00
71457;BME280;59263;48.160;11.752;2023-02-11T08:16:42;97628.81;;;-0.72;100.00
71457;BME280;59263;48.160;11.752;2023-02-11T08:19:13;97595.81;;;-0.74;100.00
71457;BME280;59263;48.160;11.752;2023-02-11T08:21:39;97630.56;;;-0.34;100.00
71457;BME280;59263;48.160;11.752;2023-02-11T08:24:05;97630.19;;;-0.15;100.00
71457;BME280;59263;48.160;11.752;2023-02-11T08:26:31;97621.44;;;-0.02;100.00
71457;BME280;59263;48.160;11.752;2023-02-11T08:28:59;97605.19;;;0.04;100.00
71457;BME280;59263;48.160;11.752;2023-02-11T08:31:37;97614.06;;;0.24;100.00
71457;BME280;59263;48.160;11.752;2023-02-11T08:34:03;97604.44;;;0.36;100.00
71457;BME280;59263;48.160;11.752;2023-02-11T08:36:31;97608.41;;;0.49;100.00
71457;BME280;59263;48.160;11.752;2023-02-11T08:38:58;97625.59;;;0.73;100.00
71457;BME280;59263;48.160;11.752;2023-02-11T08:41:25;97599.53;;;0.64;100.00
71457;BME280;59263;48.160;11.752;2023-02-11T08:43:52;97647.69;;;1.07;100.00
71457;BME280;59263;48.160;11.752;2023-02-11T08:46:19;97650.88;;;1.15;100.00
71457;BME280;59263;48.160;11.752;2023-02-11T08:48:45;97647.31;;;1.21;100.00
71457;BME280;59263;48.160;11.752;2023-02-11T08:51:16;97662.28;;;1.35;100.00
71457;BME280;59263;48.160;11.752;2023-02-11T08:53:42;97651.09;;;1.39;100.00
71457;BME280;59263;48.160;11.752;2023-02-11T08:56:09;97644.94;;;1.15;100.00
71457;BME280;59263;48.160;11.752;2023-02-11T08:58:35;97659.31;;;1.17;100.00
71457;BME280;59263;48.160;11.752;2023-02-11T09:01:00;97664.34;;;1.20;100.00
71457;BME280;59263;48.160;11.752;2023-02-11T09:03:25;97655.81;;;1.21;100.00
71457;BME280;59263;48.160;11.752;2023-02-11T09:05:51;97648.16;;;1.21;100.00
71457;BME280;59263;48.160;11.752;2023-02-11T09:08:21;97648.78;;;1.30;100.00
71457;BME280;59263;48.160;11.752;2023-02-11T09:10:46;97625.75;;;1.33;100.00
71457;BME280;59263;48.160;11.752;2023-02-11T09:13:12;97620.59;;;1.36;100.00
71457;BME280;59263;48.160;11.752;2023-02-11T09:15:38;97619.47;;;1.46;100.00
71457;BME280;59263;48.160;11.752;2023-02-11T09:18:04;97617.53;;;1.54;100.00
71457;BME280;59263;48.160;11.752;2023-02-11T09:20:29;97605.56;;;1.56;100.00
71457;BME280;59263;48.160;11.752;2023-02-11T09:22:56;97617.00;;;1.73;100.00
71457;BME280;59263;48.160;11.752;2023-02-11T09:25:22;97609.88;;;1.84;100.00
71457;BME280;59263;48.160;11.752;2023-02-11T09:27:47;97611.44;;;1.88;100.00
71457;BME280;59263;48.160;11.752;2023-02-11T09:30:14;97607.16;;;1.88;100.00
71457;BME280;59263;48.160;11.752;2023-02-11T09:32:39;97604.53;;;1.91;100.00
71457;BME280;59263;48.160;11.752;2023-02-11T09:35:05;97601.44;;;1.82;100.00
71457;BME280;59263;48.160;11.752;2023-02-11T09:37:30;97606.56;;;1.80;100.00
71457;BME280;59263;48.160;11.752;2023-02-11T09:39:56;97593.06;;;1.77;100.00
71457;BME280;59263;48.160;11.752;2023-02-11T09:42:56;97613.41;;;1.80;100.00
71457;BME280;59263;48.160;11.752;2023-02-11T09:45:27;97609.94;;;1.82;100.00
71457;BME280;59263;48.160;11.752;2023-02-11T09:48:00;97599.75;;;1.81;100.00
71457;BME280;59263;48.160;11.752;2023-02-11T09:50:33;97610.81;;;2.09;100.00
71457;BME280;59263;48.160;11.752;2023-02-11T09:55:42;97588.34;;;2.21;100.00
71457;BME280;59263;48.160;11.752;2023-02-11T10:00:44;97585.28;;;2.09;100.00
71457;BME280;59263;48.160;11.752;2023-02-11T10:03:40;97602.81;;;2.20;100.00
71457;BME280;59263;48.160;11.752;2023-02-11T10:11:54;97601.06;;;2.75;100.00
71457;BME280;59263;48.160;11.752;2023-02-11T10:20:09;97575.72;;;2.94;100.00
71457;BME280;59263;48.160;11.752;2023-02-11T10:22:43;97586.97;;;3.13;100.00
71457;BME280;59263;48.160;11.752;2023-02-11T10:25:32;97599.75;;;3.37;100.00
71457;BME280;59263;48.160;11.752;2023-02-11T10:28:00;97589.78;;;3.54;100.00
71457;BME280;59263;48.160;11.752;2023-02-11T10:30:43;97576.59;;;3.42;100.00
71457;BME280;59263;48.160;11.752;2023-02-11T10:35:49;97588.47;;;3.66;100.00
71457;BME280;59263;48.160;11.752;2023-02-11T10:38:14;97586.41;;;3.76;100.00
71457;BME280;59263;48.160;11.752;2023-02-11T10:40:39;97579.28;;;3.84;100.00
71457;BME280;59263;48.160;11.752;2023-02-11T10:43:09;97572.69;;;3.78;100.00
71457;BME280;59263;48.160;11.752;2023-02-11T10:45:39;97582.34;;;3.70;100.00
71457;BME280;59263;48.160;11.752;2023-02-11T10:51:07;97571.81;;;3.78;100.00
71457;BME280;59263;48.160;11.752;2023-02-11T10:53:33;97566.28;;;3.67;100.00
71457;BME280;59263;48.160;11.752;2023-02-11T10:56:00;97563.91;;;3.84;100.00
71457;BME280;59263;48.160;11.752;2023-02-11T11:00:58;97561.66;;;3.98;100.00
71457;BME280;59263;48.160;11.752;2023-02-11T11:03:27;97560.00;;;3.97;100.00
71457;BME280;59263;48.160;11.752;2023-02-11T11:06:04;97546.66;;;3.89;100.00
71457;BME280;59263;48.160;11.752;2023-02-11T11:08:44;97548.56;;;4.06;100.00
71457;BME280;59263;48.160;11.752;2023-02-11T11:11:14;97536.50;;;4.30;100.00
71457;BME280;59263;48.160;11.752;2023-02-11T11:14:00;97546.03;;;4.69;100.00
71457;BME280;59263;48.160;11.752;2023-02-11T11:19:23;97536.44;;;4.93;100.00
71457;BME280;59263;48.160;11.752;2023-02-11T11:21:53;97535.44;;;4.76;100.00
71457;BME280;59263;48.160;11.752;2023-02-11T11:24:26;97533.13;;;4.70;100.00
71457;BME280;59263;48.160;11.752;2023-02-11T11:26:57;97532.09;;;4.74;100.00
71457;BME280;59263;48.160;11.752;2023-02-11T11:29:37;97531.53;;;4.68;100.00
71457;BME280;59263;48.160;11.752;2023-02-11T11:34:43;97531.22;;;5.15;100.00
71457;BME280;59263;48.160;11.752;2023-02-11T11:37:28;97517.16;;;4.84;100.00
71457;BME280;59263;48.160;11.752;2023-02-11T11:40:21;97525.34;;;4.92;100.00
71457;BME280;59263;48.160;11.752;2023-02-11T11:45:28;97535.00;;;5.45;100.00
71457;BME280;59263;48.160;11.752;2023-02-11T11:48:00;97535.63;;;5.69;100.00
71457;BME280;59263;48.160;11.752;2023-02-11T11:50:41;97530.56;;;5.68;100.00
71457;BME280;59263;48.160;11.752;2023-02-11T11:56:06;97544.59;;;5.61;100.00
71457;BME280;59263;48.160;11.752;2023-02-11T11:58:33;97543.47;;;5.47;100.00
71457;BME280;59263;48.160;11.752;2023-02-11T12:01:11;97550.88;;;5.34;100.00
71457;BME280;59263;48.160;11.752;2023-02-11T12:04:09;97555.09;;;5.17;100.00
71457;BME280;59263;48.160;11.752;2023-02-11T12:12:09;97522.91;;;5.09;100.00
71457;BME280;59263;48.160;11.752;2023-02-11T12:14:48;97511.72;;;5.10;100.00
71457;BME280;59263;48.160;11.752;2023-02-11T12:17:37;97508.34;;;5.29;100.00
71457;BME280;59263;48.160;11.752;2023-02-11T12:20:16;97518.84;;;5.43;100.00
71457;BME280;59263;48.160;11.752;2023-02-11T12:23:09;97525.28;;;5.52;100.00
71457;BME280;59263;48.160;11.752;2023-02-11T12:25:50;97515.31;;;5.46;100.00
71457;BME280;59263;48.160;11.752;2023-02-11T12:34:02;97482.28;;;5.38;100.00
71457;BME280;59263;48.160;11.752;2023-02-11T12:37:06;97474.63;;;5.37;100.00
71457;BME280;59263;48.160;11.752;2023-02-11T12:43:29;97484.56;;;5.99;90.10
71457;BME280;59263;48.160;11.752;2023-02-11T12:54:16;97484.34;;;5.68;81.69
71457;BME280;59263;48.160;11.752;2023-02-11T12:57:14;97478.63;;;5.80;87.30
71457;BME280;59263;48.160;11.752;2023-02-11T13:05:22;97463.34;;;5.77;85.19
71457;BME280;59263;48.160;11.752;2023-02-11T13:07:49;97468.25;;;5.64;86.18
71457;BME280;59263;48.160;11.752;2023-02-11T13:12:49;97466.88;;;5.57;95.92
71457;BME280;59263;48.160;11.752;2023-02-11T13:15:34;97455.78;;;5.56;97.72
71457;BME280;59263;48.160;11.752;2023-02-11T13:18:11;97449.81;;;5.37;100.00
71457;BME280;59263;48.160;11.752;2023-02-11T13:26:28;97441.47;;;5.51;100.00
71457;BME280;59263;48.160;11.752;2023-02-11T13:32:05;97431.53;;;5.98;94.36
71457;BME280;59263;48.160;11.752;2023-02-11T13:37:18;97437.88;;;6.43;87.59
71457;BME280;59263;48.160;11.752;2023-02-11T13:39:59;97435.31;;;6.76;84.64
71457;BME280;59263;48.160;11.752;2023-02-11T13:42:26;97427.84;;;6.72;88.86
71457;BME280;59263;48.160;11.752;2023-02-11T13:44:53;97425.69;;;6.47;79.39
71457;BME280;59263;48.160;11.752;2023-02-11T13:47:29;97440.56;;;6.58;86.89
71457;BME280;59263;48.160;11.752;2023-02-11T13:49:56;97435.75;;;6.51;87.07
71457;BME280;59263;48.160;11.752;2023-02-11T13:52:32;97447.84;;;6.49;96.08
71457;BME280;59263;48.160;11.752;2023-02-11T13:55:14;97433.78;;;6.57;86.01
71457;BME280;59263;48.160;11.752;2023-02-11T13:57:44;97437.72;;;6.46;93.34
71457;BME280;59263;48.160;11.752;2023-02-11T14:11:52;97430.16;;;6.26;82.65
71457;BME280;59263;48.160;11.752;2023-02-11T14:19:36;97422.94;;;6.17;89.66
71457;BME280;59263;48.160;11.752;2023-02-11T14:22:11;97445.16;;;6.35;88.80
71457;BME280;59263;48.160;11.752;2023-02-11T14:27:07;97432.69;;;6.27;83.18
71457;BME280;59263;48.160;11.752;2023-02-11T14:32:30;97440.75;;;6.02;91.83
71457;BME280;59263;48.160;11.752;2023-02-11T14:35:08;97444.84;;;6.06;95.49
71457;BME280;59263;48.160;11.752;2023-02-11T14:40:28;97436.31;;;6.06;100.00
71457;BME280;59263;48.160;11.752;2023-02-11T14:42:55;97429.13;;;6.13;100.00
71457;BME280;59263;48.160;11.752;2023-02-11T14:45:26;97437.53;;;6.16;100.00
71457;BME280;59263;48.160;11.752;2023-02-11T14:48:02;97444.06;;;6.22;100.00
71457;BME280;59263;48.160;11.752;2023-02-11T14:50:37;97428.97;;;6.16;100.00
71457;BME280;59263;48.160;11.752;2023-02-11T14:53:06;97452.72;;;6.21;100.00
71457;BME280;59263;48.160;11.752;2023-02-11T14:55:40;97450.72;;;6.26;100.00
71457;BME280;59263;48.160;11.752;2023-02-11T14:58:24;97444.69;;;6.10;100.00
71457;BME280;59263;48.160;11.752;2023-02-11T15:01:01;97419.47;;;5.81;100.00
71457;BME280;59263;48.160;11.752;2023-02-11T15:03:35;97460.53;;;6.00;100.00
71457;BME280;59263;48.160;11.752;2023-02-11T15:06:07;97435.69;;;5.82;100.00
71457;BME280;59263;48.160;11.752;2023-02-11T15:08:42;97433.00;;;5.68;100.00
71457;BME280;59263;48.160;11.752;2023-02-11T15:11:12;97454.59;;;5.81;100.00